KEGK1: Cowskin Creek at Kellogg St in Wichita

Data processed at Sat May 25 2019 23:50


All information presented herein is the property of the government of the United States of America and may be revised or deleted at any time without prior notice.
Dissemination of this information without the expressed written consent of the Public Affairs Office, Tulsa District U.S. Army Corps of Engineers is strictly prohibited.
These data are gathered electronically and, as presented, have not undergone any form of quality control. These data are not guaranteed to be valid or correct.
Go to home page.
Go to station list.
Go to home page.

Upstream stations:

Downstream station:
Previous Day
Next Day
Current Day
    
SHEF ID:       KEGK1     COWSKIN C AT KELLOGG ST, WICHITA
STATION TYPE:  

               PRECIP     STAGE  RIV-FLOW  AIR-TEMP  BAT-LOAD
                   in        ft       cfs         F      volt
              Ccp-Rev   Ccp-Rev   Ccp-Rev   Ccp-Rev   Ccp-Rev
(US/Central)
05/25 00:00      0.00     15.93      1842     63.29     12.73
05/25 01:00      0.00     16.13      1991     62.82     12.65
05/25 02:00      0.00     16.31      2133     61.85     12.65
05/25 03:00      0.00     16.38      2190     61.75     12.65
05/25 04:00      0.00     16.37      2181     60.83     12.65
05/25 05:00      0.00     16.31      2133     60.52     12.65
05/25 06:00      0.00     16.23      2069     62.28     12.65
05/25 07:00      0.00     16.14      1999     62.96     12.65
05/25 08:00      0.00     16.06      1938     63.40     12.65
05/25 09:00      0.00     15.99      1886     64.11     12.65
05/25 10:00      0.00     15.94      1849     68.12     13.05
05/25 11:00      0.00     15.93      1842     69.86     13.21
05/25 12:00      0.00     15.96      1864     71.14     13.29
05/25 13:00      0.00     16.00      1893     71.81     13.21
05/25 14:00      0.00     16.03      1916     72.92     13.13
05/25 15:00      0.00     16.04      1923     73.67     13.13
05/25 16:00      0.00     16.01      1901     73.99     12.97
05/25 17:00      0.00     15.94      1849     74.28     12.97
05/25 18:00      0.00     15.83      1771     75.28     12.97
05/25 19:00      0.00     15.71      1688     73.64     12.81
05/25 20:00      0.00     15.57      1595     72.46     12.81
05/25 21:00      0.00     15.55      1582     63.76     12.73
05/25 22:00      0.00     15.79      1743     63.67     12.73
05/25 23:00      0.00     15.91      1828     63.33     12.73